sensor_id;sensor_type;location;lat;lon;timestamp;P1;durP1;ratioP1;P2;durP2;ratioP2
74799;SDS011;63326;45.088;7.658;2023-01-30T00:01:11;13.57;;;7.30;;
74799;SDS011;63326;45.088;7.658;2023-01-30T00:03:44;7.88;;;6.05;;
74799;SDS011;63326;45.088;7.658;2023-01-30T00:06:11;14.32;;;5.55;;
74799;SDS011;63326;45.088;7.658;2023-01-30T00:08:38;12.45;;;6.82;;
74799;SDS011;63326;45.088;7.658;2023-01-30T00:11:06;12.05;;;5.75;;
74799;SDS011;63326;45.088;7.658;2023-01-30T00:13:36;7.70;;;5.38;;
74799;SDS011;63326;45.088;7.658;2023-01-30T00:16:04;12.90;;;5.63;;
74799;SDS011;63326;45.088;7.658;2023-01-30T00:18:31;9.90;;;5.38;;
74799;SDS011;63326;45.088;7.658;2023-01-30T00:20:58;11.23;;;5.22;;
74799;SDS011;63326;45.088;7.658;2023-01-30T00:23:27;11.85;;;6.20;;
74799;SDS011;63326;45.088;7.658;2023-01-30T00:25:54;11.85;;;5.68;;
74799;SDS011;63326;45.088;7.658;2023-01-30T00:28:21;12.35;;;8.15;;
74799;SDS011;63326;45.088;7.658;2023-01-30T00:30:49;11.90;;;5.88;;
74799;SDS011;63326;45.088;7.658;2023-01-30T00:33:17;11.02;;;5.75;;
74799;SDS011;63326;45.088;7.658;2023-01-30T00:35:45;6.72;;;3.75;;
74799;SDS011;63326;45.088;7.658;2023-01-30T00:38:14;8.27;;;4.15;;
74799;SDS011;63326;45.088;7.658;2023-01-30T00:40:41;11.93;;;6.72;;
74799;SDS011;63326;45.088;7.658;2023-01-30T00:43:12;11.27;;;7.03;;
74799;SDS011;63326;45.088;7.658;2023-01-30T00:45:59;12.15;;;5.82;;
74799;SDS011;63326;45.088;7.658;2023-01-30T00:48:46;9.27;;;5.30;;
74799;SDS011;63326;45.088;7.658;2023-01-30T00:51:13;12.02;;;6.47;;
74799;SDS011;63326;45.088;7.658;2023-01-30T00:53:40;8.10;;;7.07;;
74799;SDS011;63326;45.088;7.658;2023-01-30T00:56:06;7.57;;;4.68;;
74799;SDS011;63326;45.088;7.658;2023-01-30T00:58:33;8.68;;;5.40;;
74799;SDS011;63326;45.088;7.658;2023-01-30T01:01:01;11.80;;;6.82;;
74799;SDS011;63326;45.088;7.658;2023-01-30T01:03:28;12.02;;;5.85;;
74799;SDS011;63326;45.088;7.658;2023-01-30T01:05:54;10.30;;;5.28;;
74799;SDS011;63326;45.088;7.658;2023-01-30T01:08:21;7.85;;;3.70;;
74799;SDS011;63326;45.088;7.658;2023-01-30T01:10:48;10.65;;;5.15;;
74799;SDS011;63326;45.088;7.658;2023-01-30T01:13:14;11.27;;;8.38;;
74799;SDS011;63326;45.088;7.658;2023-01-30T01:15:41;10.43;;;5.78;;
74799;SDS011;63326;45.088;7.658;2023-01-30T01:18:08;8.05;;;5.15;;
74799;SDS011;63326;45.088;7.658;2023-01-30T01:20:34;9.63;;;5.97;;
74799;SDS011;63326;45.088;7.658;2023-01-30T01:23:01;9.73;;;4.50;;
74799;SDS011;63326;45.088;7.658;2023-01-30T01:25:28;14.25;;;5.07;;
74799;SDS011;63326;45.088;7.658;2023-01-30T01:27:54;8.68;;;4.55;;
74799;SDS011;63326;45.088;7.658;2023-01-30T01:30:21;17.35;;;7.30;;
74799;SDS011;63326;45.088;7.658;2023-01-30T01:32:48;14.07;;;5.68;;
74799;SDS011;63326;45.088;7.658;2023-01-30T01:35:14;4.30;;;3.90;;
74799;SDS011;63326;45.088;7.658;2023-01-30T01:37:41;9.85;;;5.65;;
74799;SDS011;63326;45.088;7.658;2023-01-30T01:40:09;14.77;;;6.50;;
74799;SDS011;63326;45.088;7.658;2023-01-30T01:43:01;8.82;;;4.45;;
74799;SDS011;63326;45.088;7.658;2023-01-30T01:45:30;13.07;;;5.40;;
74799;SDS011;63326;45.088;7.658;2023-01-30T01:50:43;10.50;;;6.97;;
74799;SDS011;63326;45.088;7.658;2023-01-30T01:53:15;4.97;;;3.97;;
74799;SDS011;63326;45.088;7.658;2023-01-30T01:55:44;9.05;;;5.03;;
74799;SDS011;63326;45.088;7.658;2023-01-30T02:00:55;7.57;;;4.00;;
74799;SDS011;63326;45.088;7.658;2023-01-30T02:03:24;11.35;;;4.30;;
74799;SDS011;63326;45.088;7.658;2023-01-30T02:05:54;7.30;;;5.45;;
74799;SDS011;63326;45.088;7.658;2023-01-30T02:08:25;16.00;;;6.15;;
74799;SDS011;63326;45.088;7.658;2023-01-30T02:13:51;10.45;;;5.55;;
74799;SDS011;63326;45.088;7.658;2023-01-30T02:16:19;5.20;;;3.72;;
74799;SDS011;63326;45.088;7.658;2023-01-30T02:18:46;13.43;;;7.13;;
74799;SDS011;63326;45.088;7.658;2023-01-30T02:30:08;12.35;;;4.43;;
74799;SDS011;63326;45.088;7.658;2023-01-30T02:35:23;10.43;;;4.80;;
74799;SDS011;63326;45.088;7.658;2023-01-30T02:49:22;9.20;;;5.53;;
74799;SDS011;63326;45.088;7.658;2023-01-30T02:51:55;9.75;;;5.07;;
74799;SDS011;63326;45.088;7.658;2023-01-30T02:54:25;7.63;;;4.25;;
74799;SDS011;63326;45.088;7.658;2023-01-30T02:56:53;9.23;;;5.00;;
74799;SDS011;63326;45.088;7.658;2023-01-30T02:59:25;14.38;;;5.75;;
74799;SDS011;63326;45.088;7.658;2023-01-30T03:13:19;9.05;;;4.55;;
74799;SDS011;63326;45.088;7.658;2023-01-30T03:16:04;2.47;;;2.28;;
74799;SDS011;63326;45.088;7.658;2023-01-30T03:18:39;11.23;;;5.38;;
74799;SDS011;63326;45.088;7.658;2023-01-30T03:21:13;7.70;;;5.65;;
74799;SDS011;63326;45.088;7.658;2023-01-30T03:23:40;13.50;;;4.63;;
74799;SDS011;63326;45.088;7.658;2023-01-30T03:26:07;7.57;;;5.25;;
74799;SDS011;63326;45.088;7.658;2023-01-30T03:28:40;16.73;;;6.07;;
74799;SDS011;63326;45.088;7.658;2023-01-30T03:31:07;7.10;;;5.07;;
74799;SDS011;63326;45.088;7.658;2023-01-30T03:33:35;9.93;;;5.40;;
74799;SDS011;63326;45.088;7.658;2023-01-30T03:36:02;8.50;;;4.38;;
74799;SDS011;63326;45.088;7.658;2023-01-30T03:38:29;11.43;;;5.65;;
74799;SDS011;63326;45.088;7.658;2023-01-30T03:40:55;8.38;;;5.35;;
74799;SDS011;63326;45.088;7.658;2023-01-30T03:43:22;7.72;;;4.07;;
74799;SDS011;63326;45.088;7.658;2023-01-30T03:45:49;7.25;;;4.88;;
74799;SDS011;63326;45.088;7.658;2023-01-30T03:48:16;6.97;;;3.92;;
74799;SDS011;63326;45.088;7.658;2023-01-30T03:50:42;11.15;;;8.10;;
74799;SDS011;63326;45.088;7.658;2023-01-30T03:53:09;6.38;;;4.38;;
74799;SDS011;63326;45.088;7.658;2023-01-30T03:55:36;12.68;;;5.35;;
74799;SDS011;63326;45.088;7.658;2023-01-30T03:58:02;4.55;;;3.88;;
74799;SDS011;63326;45.088;7.658;2023-01-30T04:00:31;8.13;;;4.78;;
74799;SDS011;63326;45.088;7.658;2023-01-30T04:02:59;7.50;;;4.53;;
74799;SDS011;63326;45.088;7.658;2023-01-30T04:05:26;9.63;;;4.35;;
74799;SDS011;63326;45.088;7.658;2023-01-30T04:08:00;9.77;;;5.10;;
74799;SDS011;63326;45.088;7.658;2023-01-30T04:10:27;6.13;;;5.03;;
74799;SDS011;63326;45.088;7.658;2023-01-30T04:12:53;6.82;;;4.38;;
74799;SDS011;63326;45.088;7.658;2023-01-30T04:15:21;11.32;;;5.35;;
74799;SDS011;63326;45.088;7.658;2023-01-30T04:18:03;17.50;;;7.15;;
74799;SDS011;63326;45.088;7.658;2023-01-30T04:20:44;17.45;;;6.95;;
74799;SDS011;63326;45.088;7.658;2023-01-30T04:23:11;11.13;;;5.75;;
74799;SDS011;63326;45.088;7.658;2023-01-30T04:25:38;8.48;;;6.57;;
74799;SDS011;63326;45.088;7.658;2023-01-30T04:28:07;7.00;;;5.30;;
74799;SDS011;63326;45.088;7.658;2023-01-30T04:30:36;9.85;;;5.80;;
74799;SDS011;63326;45.088;7.658;2023-01-30T04:33:22;9.88;;;6.25;;
74799;SDS011;63326;45.088;7.658;2023-01-30T04:35:55;11.63;;;3.72;;
74799;SDS011;63326;45.088;7.658;2023-01-30T04:38:24;7.05;;;3.28;;
74799;SDS011;63326;45.088;7.658;2023-01-30T04:40:53;6.00;;;4.20;;
74799;SDS011;63326;45.088;7.658;2023-01-30T04:43:21;9.25;;;4.75;;
74799;SDS011;63326;45.088;7.658;2023-01-30T04:45:50;6.82;;;4.75;;
74799;SDS011;63326;45.088;7.658;2023-01-30T04:48:18;8.00;;;5.65;;
74799;SDS011;63326;45.088;7.658;2023-01-30T04:50:46;9.93;;;6.40;;
74799;SDS011;63326;45.088;7.658;2023-01-30T04:53:15;10.52;;;5.63;;
74799;SDS011;63326;45.088;7.658;2023-01-30T04:55:43;8.05;;;4.85;;
74799;SDS011;63326;45.088;7.658;2023-01-30T04:58:09;11.38;;;4.63;;
74799;SDS011;63326;45.088;7.658;2023-01-30T05:00:36;7.90;;;5.15;;
74799;SDS011;63326;45.088;7.658;2023-01-30T05:03:03;17.20;;;7.78;;
74799;SDS011;63326;45.088;7.658;2023-01-30T05:05:31;9.75;;;5.97;;
74799;SDS011;63326;45.088;7.658;2023-01-30T05:07:59;9.90;;;5.32;;
74799;SDS011;63326;45.088;7.658;2023-01-30T05:10:26;8.35;;;6.13;;
74799;SDS011;63326;45.088;7.658;2023-01-30T05:12:53;6.28;;;3.97;;
74799;SDS011;63326;45.088;7.658;2023-01-30T05:15:20;9.82;;;5.72;;
74799;SDS011;63326;45.088;7.658;2023-01-30T05:17:46;11.10;;;6.05;;
74799;SDS011;63326;45.088;7.658;2023-01-30T05:20:13;7.05;;;4.18;;
74799;SDS011;63326;45.088;7.658;2023-01-30T05:22:39;8.93;;;5.35;;
74799;SDS011;63326;45.088;7.658;2023-01-30T05:25:06;9.63;;;5.97;;
74799;SDS011;63326;45.088;7.658;2023-01-30T05:27:33;9.57;;;4.70;;
74799;SDS011;63326;45.088;7.658;2023-01-30T05:30:00;19.48;;;5.65;;
74799;SDS011;63326;45.088;7.658;2023-01-30T05:32:27;8.35;;;4.78;;
74799;SDS011;63326;45.088;7.658;2023-01-30T05:34:56;9.80;;;5.10;;
74799;SDS011;63326;45.088;7.658;2023-01-30T05:37:23;7.10;;;4.47;;
74799;SDS011;63326;45.088;7.658;2023-01-30T05:39:49;6.85;;;5.25;;
74799;SDS011;63326;45.088;7.658;2023-01-30T05:42:16;11.23;;;4.88;;
74799;SDS011;63326;45.088;7.658;2023-01-30T05:44:43;12.18;;;7.00;;
74799;SDS011;63326;45.088;7.658;2023-01-30T05:47:09;6.32;;;4.00;;
74799;SDS011;63326;45.088;7.658;2023-01-30T05:49:36;8.57;;;5.13;;
74799;SDS011;63326;45.088;7.658;2023-01-30T05:52:03;4.75;;;3.25;;
74799;SDS011;63326;45.088;7.658;2023-01-30T05:54:29;11.50;;;4.10;;
74799;SDS011;63326;45.088;7.658;2023-01-30T05:56:56;5.15;;;4.03;;
74799;SDS011;63326;45.088;7.658;2023-01-30T05:59:23;7.82;;;4.07;;
74799;SDS011;63326;45.088;7.658;2023-01-30T06:01:49;5.35;;;3.80;;
74799;SDS011;63326;45.088;7.658;2023-01-30T06:04:16;12.68;;;4.68;;
74799;SDS011;63326;45.088;7.658;2023-01-30T06:06:42;7.13;;;3.47;;
74799;SDS011;63326;45.088;7.658;2023-01-30T06:09:09;3.80;;;2.70;;
74799;SDS011;63326;45.088;7.658;2023-01-30T06:11:36;5.63;;;4.70;;
74799;SDS011;63326;45.088;7.658;2023-01-30T06:14:02;11.45;;;4.53;;
74799;SDS011;63326;45.088;7.658;2023-01-30T06:16:29;6.45;;;3.70;;
74799;SDS011;63326;45.088;7.658;2023-01-30T06:18:56;6.47;;;3.92;;
74799;SDS011;63326;45.088;7.658;2023-01-30T06:21:22;8.88;;;6.07;;
74799;SDS011;63326;45.088;7.658;2023-01-30T06:23:49;5.45;;;3.90;;
74799;SDS011;63326;45.088;7.658;2023-01-30T06:26:15;9.27;;;4.68;;
74799;SDS011;63326;45.088;7.658;2023-01-30T06:28:42;5.57;;;4.20;;
74799;SDS011;63326;45.088;7.658;2023-01-30T06:31:09;6.32;;;4.20;;
74799;SDS011;63326;45.088;7.658;2023-01-30T06:33:36;7.30;;;3.03;;
74799;SDS011;63326;45.088;7.658;2023-01-30T06:36:03;6.53;;;4.00;;
74799;SDS011;63326;45.088;7.658;2023-01-30T06:38:30;4.20;;;2.90;;
74799;SDS011;63326;45.088;7.658;2023-01-30T06:40:56;4.75;;;3.88;;
74799;SDS011;63326;45.088;7.658;2023-01-30T06:43:23;6.53;;;4.05;;
74799;SDS011;63326;45.088;7.658;2023-01-30T06:45:49;3.17;;;2.72;;
74799;SDS011;63326;45.088;7.658;2023-01-30T06:48:16;4.95;;;3.40;;
74799;SDS011;63326;45.088;7.658;2023-01-30T06:50:44;6.95;;;3.65;;
74799;SDS011;63326;45.088;7.658;2023-01-30T06:53:11;13.27;;;5.75;;
74799;SDS011;63326;45.088;7.658;2023-01-30T06:55:38;5.63;;;3.25;;
74799;SDS011;63326;45.088;7.658;2023-01-30T06:58:05;10.23;;;4.30;;
74799;SDS011;63326;45.088;7.658;2023-01-30T07:00:33;6.10;;;4.72;;
74799;SDS011;63326;45.088;7.658;2023-01-30T07:03:00;4.53;;;3.17;;
74799;SDS011;63326;45.088;7.658;2023-01-30T07:05:27;4.78;;;2.88;;
74799;SDS011;63326;45.088;7.658;2023-01-30T07:07:55;11.57;;;4.93;;
74799;SDS011;63326;45.088;7.658;2023-01-30T07:10:22;11.00;;;5.60;;
74799;SDS011;63326;45.088;7.658;2023-01-30T07:12:49;9.77;;;3.85;;
74799;SDS011;63326;45.088;7.658;2023-01-30T07:15:15;6.38;;;4.07;;
74799;SDS011;63326;45.088;7.658;2023-01-30T07:17:43;6.13;;;3.92;;
74799;SDS011;63326;45.088;7.658;2023-01-30T07:20:09;6.63;;;5.05;;
74799;SDS011;63326;45.088;7.658;2023-01-30T07:22:37;11.73;;;5.43;;
74799;SDS011;63326;45.088;7.658;2023-01-30T07:25:03;6.22;;;3.03;;
74799;SDS011;63326;45.088;7.658;2023-01-30T07:27:31;5.43;;;4.05;;
74799;SDS011;63326;45.088;7.658;2023-01-30T07:29:57;6.95;;;5.03;;
74799;SDS011;63326;45.088;7.658;2023-01-30T07:32:24;11.48;;;3.75;;
74799;SDS011;63326;45.088;7.658;2023-01-30T07:34:51;10.10;;;5.72;;
74799;SDS011;63326;45.088;7.658;2023-01-30T07:37:18;12.68;;;5.50;;
74799;SDS011;63326;45.088;7.658;2023-01-30T07:39:44;8.48;;;5.05;;
74799;SDS011;63326;45.088;7.658;2023-01-30T07:42:11;4.95;;;4.30;;
74799;SDS011;63326;45.088;7.658;2023-01-30T07:44:38;7.75;;;4.18;;
74799;SDS011;63326;45.088;7.658;2023-01-30T07:47:05;5.78;;;4.28;;
74799;SDS011;63326;45.088;7.658;2023-01-30T07:49:32;11.38;;;4.00;;
74799;SDS011;63326;45.088;7.658;2023-01-30T07:51:58;7.90;;;4.40;;
74799;SDS011;63326;45.088;7.658;2023-01-30T07:54:25;6.80;;;3.00;;
74799;SDS011;63326;45.088;7.658;2023-01-30T07:56:52;8.68;;;3.85;;
74799;SDS011;63326;45.088;7.658;2023-01-30T07:59:18;7.22;;;4.28;;
74799;SDS011;63326;45.088;7.658;2023-01-30T08:01:45;7.85;;;4.45;;
74799;SDS011;63326;45.088;7.658;2023-01-30T08:04:11;4.80;;;3.40;;
74799;SDS011;63326;45.088;7.658;2023-01-30T08:06:38;13.35;;;4.85;;
74799;SDS011;63326;45.088;7.658;2023-01-30T08:09:05;8.50;;;5.53;;
74799;SDS011;63326;45.088;7.658;2023-01-30T08:11:32;7.45;;;4.72;;
74799;SDS011;63326;45.088;7.658;2023-01-30T08:14:00;6.07;;;4.97;;
74799;SDS011;63326;45.088;7.658;2023-01-30T08:16:26;15.57;;;7.18;;
74799;SDS011;63326;45.088;7.658;2023-01-30T08:18:53;10.23;;;4.75;;
74799;SDS011;63326;45.088;7.658;2023-01-30T08:21:20;18.73;;;3.75;;
74799;SDS011;63326;45.088;7.658;2023-01-30T08:23:47;6.95;;;3.83;;
74799;SDS011;63326;45.088;7.658;2023-01-30T08:26:13;14.07;;;6.45;;
74799;SDS011;63326;45.088;7.658;2023-01-30T08:28:40;11.10;;;6.78;;
74799;SDS011;63326;45.088;7.658;2023-01-30T08:31:08;16.88;;;8.40;;
74799;SDS011;63326;45.088;7.658;2023-01-30T08:33:36;18.83;;;8.52;;
74799;SDS011;63326;45.088;7.658;2023-01-30T08:36:03;14.63;;;7.88;;
74799;SDS011;63326;45.088;7.658;2023-01-30T08:38:30;14.00;;;8.20;;
74799;SDS011;63326;45.088;7.658;2023-01-30T08:40:57;14.77;;;7.80;;
74799;SDS011;63326;45.088;7.658;2023-01-30T08:43:24;13.38;;;8.82;;
74799;SDS011;63326;45.088;7.658;2023-01-30T08:45:54;17.27;;;9.32;;
74799;SDS011;63326;45.088;7.658;2023-01-30T08:48:22;16.85;;;8.90;;
74799;SDS011;63326;45.088;7.658;2023-01-30T08:50:55;16.58;;;8.68;;
74799;SDS011;63326;45.088;7.658;2023-01-30T08:53:25;18.77;;;9.15;;
74799;SDS011;63326;45.088;7.658;2023-01-30T08:55:52;18.60;;;7.72;;
74799;SDS011;63326;45.088;7.658;2023-01-30T08:58:19;16.27;;;7.45;;
74799;SDS011;63326;45.088;7.658;2023-01-30T09:00:46;16.77;;;8.93;;
74799;SDS011;63326;45.088;7.658;2023-01-30T09:05:41;9.60;;;6.03;;
74799;SDS011;63326;45.088;7.658;2023-01-30T09:08:08;14.00;;;7.50;;
74799;SDS011;63326;45.088;7.658;2023-01-30T09:10:35;15.52;;;8.23;;
74799;SDS011;63326;45.088;7.658;2023-01-30T09:13:02;20.58;;;9.52;;
74799;SDS011;63326;45.088;7.658;2023-01-30T09:15:30;16.10;;;9.40;;
74799;SDS011;63326;45.088;7.658;2023-01-30T09:17:58;15.52;;;10.05;;
74799;SDS011;63326;45.088;7.658;2023-01-30T09:20:24;13.63;;;7.47;;
74799;SDS011;63326;45.088;7.658;2023-01-30T09:22:51;21.83;;;8.88;;
74799;SDS011;63326;45.088;7.658;2023-01-30T09:25:18;15.50;;;8.40;;
74799;SDS011;63326;45.088;7.658;2023-01-30T09:27:46;17.15;;;8.80;;
74799;SDS011;63326;45.088;7.658;2023-01-30T09:30:14;19.67;;;8.68;;
74799;SDS011;63326;45.088;7.658;2023-01-30T09:32:41;15.85;;;8.68;;
74799;SDS011;63326;45.088;7.658;2023-01-30T09:35:07;17.38;;;7.85;;
74799;SDS011;63326;45.088;7.658;2023-01-30T09:37:34;17.52;;;9.63;;
74799;SDS011;63326;45.088;7.658;2023-01-30T09:40:01;16.40;;;8.93;;
74799;SDS011;63326;45.088;7.658;2023-01-30T09:53:12;23.92;;;11.88;;
74799;SDS011;63326;45.088;7.658;2023-01-30T09:56:03;23.65;;;11.77;;
74799;SDS011;63326;45.088;7.658;2023-01-30T09:59:14;23.45;;;12.93;;
74799;SDS011;63326;45.088;7.658;2023-01-30T10:01:39;25.17;;;12.80;;
74799;SDS011;63326;45.088;7.658;2023-01-30T10:04:35;24.40;;;13.65;;
74799;SDS011;63326;45.088;7.658;2023-01-30T10:10:05;25.35;;;14.35;;
74799;SDS011;63326;45.088;7.658;2023-01-30T10:12:42;20.70;;;11.77;;
74799;SDS011;63326;45.088;7.658;2023-01-30T10:26:39;26.02;;;12.52;;
74799;SDS011;63326;45.088;7.658;2023-01-30T10:29:12;21.77;;;12.02;;
74799;SDS011;63326;45.088;7.658;2023-01-30T10:31:50;24.85;;;13.02;;
74799;SDS011;63326;45.088;7.658;2023-01-30T10:34:28;25.05;;;14.60;;
74799;SDS011;63326;45.088;7.658;2023-01-30T10:37:09;23.20;;;13.25;;
74799;SDS011;63326;45.088;7.658;2023-01-30T10:39:43;26.92;;;14.60;;
74799;SDS011;63326;45.088;7.658;2023-01-30T10:42:28;18.88;;;12.23;;
74799;SDS011;63326;45.088;7.658;2023-01-30T10:45:11;24.48;;;12.77;;
74799;SDS011;63326;45.088;7.658;2023-01-30T10:47:47;25.58;;;11.75;;
74799;SDS011;63326;45.088;7.658;2023-01-30T10:50:28;20.70;;;13.63;;
74799;SDS011;63326;45.088;7.658;2023-01-30T10:55:38;17.60;;;11.38;;
74799;SDS011;63326;45.088;7.658;2023-01-30T10:58:16;21.45;;;11.45;;
74799;SDS011;63326;45.088;7.658;2023-01-30T11:00:48;25.05;;;13.70;;
74799;SDS011;63326;45.088;7.658;2023-01-30T11:06:28;22.88;;;12.10;;
74799;SDS011;63326;45.088;7.658;2023-01-30T11:08:57;21.65;;;12.73;;
74799;SDS011;63326;45.088;7.658;2023-01-30T11:11:28;24.15;;;13.60;;
74799;SDS011;63326;45.088;7.658;2023-01-30T11:14:09;20.77;;;10.85;;
74799;SDS011;63326;45.088;7.658;2023-01-30T11:16:41;23.77;;;12.30;;
74799;SDS011;63326;45.088;7.658;2023-01-30T11:19:12;22.85;;;13.05;;
74799;SDS011;63326;45.088;7.658;2023-01-30T11:21:49;22.65;;;11.77;;
74799;SDS011;63326;45.088;7.658;2023-01-30T11:24:19;24.15;;;14.13;;
74799;SDS011;63326;45.088;7.658;2023-01-30T11:26:49;19.63;;;11.32;;
74799;SDS011;63326;45.088;7.658;2023-01-30T11:29:30;21.02;;;12.32;;
74799;SDS011;63326;45.088;7.658;2023-01-30T11:32:02;26.20;;;11.65;;
74799;SDS011;63326;45.088;7.658;2023-01-30T11:34:31;20.65;;;12.43;;
74799;SDS011;63326;45.088;7.658;2023-01-30T11:37:22;24.35;;;11.32;;
74799;SDS011;63326;45.088;7.658;2023-01-30T11:39:55;24.23;;;11.00;;
74799;SDS011;63326;45.088;7.658;2023-01-30T11:42:40;21.98;;;11.73;;
74799;SDS011;63326;45.088;7.658;2023-01-30T11:45:10;21.15;;;12.55;;
74799;SDS011;63326;45.088;7.658;2023-01-30T11:47:48;18.33;;;9.52;;
74799;SDS011;63326;45.088;7.658;2023-01-30T11:50:31;24.75;;;10.90;;
74799;SDS011;63326;45.088;7.658;2023-01-30T11:53:13;24.42;;;10.60;;
74799;SDS011;63326;45.088;7.658;2023-01-30T11:55:44;25.08;;;11.60;;
74799;SDS011;63326;45.088;7.658;2023-01-30T11:58:30;20.73;;;12.05;;
74799;SDS011;63326;45.088;7.658;2023-01-30T12:00:59;23.02;;;11.68;;
74799;SDS011;63326;45.088;7.658;2023-01-30T12:03:27;23.10;;;12.80;;
74799;SDS011;63326;45.088;7.658;2023-01-30T12:05:56;21.40;;;12.77;;
74799;SDS011;63326;45.088;7.658;2023-01-30T12:08:25;20.50;;;10.02;;
74799;SDS011;63326;45.088;7.658;2023-01-30T12:14:15;20.10;;;11.98;;
74799;SDS011;63326;45.088;7.658;2023-01-30T12:22:36;20.40;;;9.93;;
74799;SDS011;63326;45.088;7.658;2023-01-30T12:25:09;21.23;;;12.02;;
74799;SDS011;63326;45.088;7.658;2023-01-30T12:30:29;24.15;;;13.27;;
74799;SDS011;63326;45.088;7.658;2023-01-30T12:33:02;24.88;;;12.45;;
74799;SDS011;63326;45.088;7.658;2023-01-30T12:35:42;21.77;;;11.63;;
74799;SDS011;63326;45.088;7.658;2023-01-30T12:38:21;21.30;;;11.65;;
74799;SDS011;63326;45.088;7.658;2023-01-30T12:49:01;21.85;;;10.88;;
74799;SDS011;63326;45.088;7.658;2023-01-30T12:52:12;19.98;;;11.13;;
74799;SDS011;63326;45.088;7.658;2023-01-30T12:57:14;20.40;;;11.25;;
74799;SDS011;63326;45.088;7.658;2023-01-30T13:07:54;22.55;;;12.82;;
74799;SDS011;63326;45.088;7.658;2023-01-30T13:13:43;23.65;;;12.60;;
74799;SDS011;63326;45.088;7.658;2023-01-30T13:19:28;21.08;;;13.80;;
74799;SDS011;63326;45.088;7.658;2023-01-30T13:24:46;20.42;;;13.30;;
74799;SDS011;63326;45.088;7.658;2023-01-30T13:27:23;21.17;;;11.98;;
74799;SDS011;63326;45.088;7.658;2023-01-30T13:29:52;19.95;;;13.05;;
74799;SDS011;63326;45.088;7.658;2023-01-30T13:35:18;21.48;;;12.95;;
74799;SDS011;63326;45.088;7.658;2023-01-30T13:37:48;20.65;;;12.23;;
74799;SDS011;63326;45.088;7.658;2023-01-30T13:40:18;21.20;;;12.02;;
74799;SDS011;63326;45.088;7.658;2023-01-30T13:42:52;17.70;;;12.40;;
74799;SDS011;63326;45.088;7.658;2023-01-30T13:45:34;21.65;;;13.73;;
74799;SDS011;63326;45.088;7.658;2023-01-30T13:53:18;21.42;;;11.52;;
74799;SDS011;63326;45.088;7.658;2023-01-30T13:55:57;21.95;;;13.38;;
74799;SDS011;63326;45.088;7.658;2023-01-30T13:59:09;23.80;;;11.50;;
74799;SDS011;63326;45.088;7.658;2023-01-30T14:09:42;21.70;;;10.55;;
74799;SDS011;63326;45.088;7.658;2023-01-30T14:12:18;21.27;;;11.07;;
74799;SDS011;63326;45.088;7.658;2023-01-30T14:17:36;21.35;;;11.82;;
74799;SDS011;63326;45.088;7.658;2023-01-30T14:20:13;19.48;;;11.10;;
74799;SDS011;63326;45.088;7.658;2023-01-30T14:27:48;22.20;;;11.18;;
74799;SDS011;63326;45.088;7.658;2023-01-30T14:32:57;16.13;;;11.00;;
74799;SDS011;63326;45.088;7.658;2023-01-30T14:35:26;20.95;;;11.68;;
74799;SDS011;63326;45.088;7.658;2023-01-30T14:38:03;17.25;;;12.32;;
74799;SDS011;63326;45.088;7.658;2023-01-30T14:40:39;19.95;;;10.65;;
74799;SDS011;63326;45.088;7.658;2023-01-30T14:59:07;15.93;;;9.20;;
74799;SDS011;63326;45.088;7.658;2023-01-30T15:01:52;19.48;;;10.95;;
74799;SDS011;63326;45.088;7.658;2023-01-30T15:07:00;16.23;;;8.88;;
74799;SDS011;63326;45.088;7.658;2023-01-30T15:09:33;18.38;;;9.80;;
74799;SDS011;63326;45.088;7.658;2023-01-30T15:14:41;18.20;;;10.43;;
74799;SDS011;63326;45.088;7.658;2023-01-30T15:20:11;13.13;;;8.05;;
74799;SDS011;63326;45.088;7.658;2023-01-30T15:23:07;14.25;;;7.57;;
74799;SDS011;63326;45.088;7.658;2023-01-30T15:28:43;15.85;;;8.93;;
74799;SDS011;63326;45.088;7.658;2023-01-30T15:33:48;16.70;;;8.73;;
74799;SDS011;63326;45.088;7.658;2023-01-30T15:36:17;16.45;;;9.52;;
74799;SDS011;63326;45.088;7.658;2023-01-30T15:38:48;15.38;;;7.90;;
74799;SDS011;63326;45.088;7.658;2023-01-30T15:43:57;16.33;;;7.97;;
74799;SDS011;63326;45.088;7.658;2023-01-30T15:52:04;17.00;;;9.23;;
74799;SDS011;63326;45.088;7.658;2023-01-30T15:54:39;17.08;;;9.25;;
74799;SDS011;63326;45.088;7.658;2023-01-30T15:57:10;17.35;;;9.30;;
74799;SDS011;63326;45.088;7.658;2023-01-30T15:59:43;16.88;;;8.82;;
74799;SDS011;63326;45.088;7.658;2023-01-30T16:02:15;14.50;;;7.57;;
74799;SDS011;63326;45.088;7.658;2023-01-30T16:05:12;12.45;;;6.88;;
74799;SDS011;63326;45.088;7.658;2023-01-30T16:07:40;12.40;;;7.03;;
74799;SDS011;63326;45.088;7.658;2023-01-30T16:10:11;14.20;;;6.72;;
74799;SDS011;63326;45.088;7.658;2023-01-30T16:12:40;14.93;;;6.28;;
74799;SDS011;63326;45.088;7.658;2023-01-30T16:15:14;14.23;;;6.22;;
74799;SDS011;63326;45.088;7.658;2023-01-30T16:17:58;9.70;;;5.85;;
74799;SDS011;63326;45.088;7.658;2023-01-30T16:20:48;10.68;;;5.57;;
74799;SDS011;63326;45.088;7.658;2023-01-30T16:29:07;12.65;;;6.25;;
74799;SDS011;63326;45.088;7.658;2023-01-30T16:31:39;13.50;;;6.38;;
74799;SDS011;63326;45.088;7.658;2023-01-30T16:34:20;13.77;;;6.35;;
74799;SDS011;63326;45.088;7.658;2023-01-30T16:36:53;13.63;;;6.30;;
74799;SDS011;63326;45.088;7.658;2023-01-30T16:39:28;15.70;;;6.88;;
74799;SDS011;63326;45.088;7.658;2023-01-30T16:41:57;8.85;;;5.25;;
74799;SDS011;63326;45.088;7.658;2023-01-30T16:44:26;19.52;;;6.35;;
74799;SDS011;63326;45.088;7.658;2023-01-30T16:52:09;14.98;;;7.45;;
74799;SDS011;63326;45.088;7.658;2023-01-30T16:54:42;17.42;;;7.18;;
74799;SDS011;63326;45.088;7.658;2023-01-30T17:00:07;13.73;;;7.05;;
74799;SDS011;63326;45.088;7.658;2023-01-30T17:03:00;21.10;;;6.55;;
74799;SDS011;63326;45.088;7.658;2023-01-30T17:05:35;10.93;;;5.85;;
74799;SDS011;63326;45.088;7.658;2023-01-30T17:08:04;13.98;;;6.28;;
74799;SDS011;63326;45.088;7.658;2023-01-30T17:13:28;11.93;;;5.18;;
74799;SDS011;63326;45.088;7.658;2023-01-30T17:18:47;10.30;;;6.18;;
74799;SDS011;63326;45.088;7.658;2023-01-30T17:21:15;14.15;;;4.55;;
74799;SDS011;63326;45.088;7.658;2023-01-30T17:23:46;15.63;;;6.72;;
74799;SDS011;63326;45.088;7.658;2023-01-30T17:28:43;12.65;;;5.70;;
74799;SDS011;63326;45.088;7.658;2023-01-30T17:31:10;13.23;;;7.10;;
74799;SDS011;63326;45.088;7.658;2023-01-30T17:33:38;25.48;;;6.05;;
74799;SDS011;63326;45.088;7.658;2023-01-30T17:36:05;11.43;;;5.15;;
74799;SDS011;63326;45.088;7.658;2023-01-30T17:38:40;8.57;;;4.85;;
74799;SDS011;63326;45.088;7.658;2023-01-30T17:41:10;8.70;;;4.93;;
74799;SDS011;63326;45.088;7.658;2023-01-30T17:43:46;11.27;;;6.35;;
74799;SDS011;63326;45.088;7.658;2023-01-30T17:46:15;11.82;;;6.25;;
74799;SDS011;63326;45.088;7.658;2023-01-30T17:48:42;14.73;;;5.63;;
74799;SDS011;63326;45.088;7.658;2023-01-30T17:51:09;11.70;;;5.70;;
74799;SDS011;63326;45.088;7.658;2023-01-30T17:53:39;11.45;;;6.07;;
74799;SDS011;63326;45.088;7.658;2023-01-30T17:56:16;13.77;;;5.78;;
74799;SDS011;63326;45.088;7.658;2023-01-30T18:01:15;6.85;;;4.25;;
74799;SDS011;63326;45.088;7.658;2023-01-30T18:03:44;11.82;;;4.80;;
74799;SDS011;63326;45.088;7.658;2023-01-30T18:06:11;10.73;;;5.40;;
74799;SDS011;63326;45.088;7.658;2023-01-30T18:08:39;9.07;;;5.05;;
74799;SDS011;63326;45.088;7.658;2023-01-30T18:11:06;12.60;;;5.20;;
74799;SDS011;63326;45.088;7.658;2023-01-30T18:13:37;9.30;;;3.40;;
74799;SDS011;63326;45.088;7.658;2023-01-30T18:16:05;12.85;;;5.10;;
74799;SDS011;63326;45.088;7.658;2023-01-30T18:18:32;16.80;;;5.45;;
74799;SDS011;63326;45.088;7.658;2023-01-30T18:20:58;12.63;;;7.07;;